• Join FlightAware (Why Join?)
  • Login
  • US Flag 
08:03PM EST


 

Airport Tracker/Info


-or-


 

Live Flight TrackerFlight Track Log ✈ FIN666 ✈ 03-Feb-2014 ✈ EKCH / CPH - EFHK / HEL

Flight Track Log - Related Links

Times and Time Zones

All times are in EST time to prevent confusion due to time zone crossing. See the FIN666 flight status page for this flight to view local times or setup timezone preferences in your user account.

Time Position Orientation Groundspeed Altitude Reporting Facility
EST Latitude Longitude Course Direction KTS MPH feet Rate Location/Type
07:40AM 55.9207 13.2838 49° Northeast  Level Estimated
07:41AM 55.9958 13.4423 50° Northeast  Level Estimated
07:42AM 56.0708 13.6014 50° Northeast  Level Estimated
07:43AM 56.1456 13.7611 50° Northeast  Level Estimated
07:44AM 56.2202 13.9214 50° Northeast  Level Estimated
07:45AM 56.2945 14.0824 50° Northeast  Level Estimated
07:46AM 56.3687 14.2440 50° Northeast  Level Estimated
07:47AM 56.4426 14.4062 50° Northeast  Level Estimated
07:48AM 56.5233 14.5846 51° Northeast  Level Estimated
07:49AM 56.6038 14.7637 51° Northeast  Level Estimated
07:50AM 56.6841 14.9437 51° Northeast  Level Estimated
07:51AM 56.7640 15.1243 51° Northeast  Level Estimated
07:52AM 56.8437 15.3058 51° Northeast  Level Estimated
07:53AM 56.9231 15.4880 51° Northeast  Level Estimated
07:54AM 57.0023 15.6710 51° Northeast  Level Estimated
07:55AM 57.0812 15.8548 52° Northeast  Level Estimated
07:56AM 57.1598 16.0394 52° Northeast  Level Estimated
07:57AM 57.2382 16.2247 52° Northeast  Level Estimated
07:58AM 57.3163 16.4109 52° Northeast  Level Estimated
07:59AM 57.3941 16.5978 52° Northeast  Level Estimated
08:00AM 57.4716 16.7855 52° Northeast  Level Estimated
08:01AM 57.5489 16.9740 53° Northeast  Level Estimated
08:02AM 57.6258 17.1634 53° Northeast  Level Estimated
08:03AM 57.7025 17.3535 53° Northeast  Level Estimated
08:04AM 57.7789 17.5444 53° Northeast  Level Estimated
08:05AM 57.8550 17.7362 53° Northeast  Level Estimated
08:06AM 57.9309 17.9287 53° Northeast  Level Estimated
08:07AM 58.0064 18.1221 54° Northeast  Level Estimated
08:08AM 58.0816 18.3162 54° Northeast  Level Estimated
08:09AM 58.1566 18.5112 54° Northeast  Level Estimated
08:10AM 58.2312 18.7071 54° Northeast  Level Estimated
08:11AM 58.3055 18.9037 54° Northeast  Level Estimated
08:12AM 58.3796 19.1012 54° Northeast  Level Estimated
08:13AM 58.4533 19.2995 55° Northeast  Level Estimated
08:14AM 58.5267 19.4986 55° Northeast  Level Estimated
08:15AM 58.5998 19.6986 55° Northeast  Level Estimated
08:16AM 58.6726 19.8994 55° Northeast  Level Estimated
08:17AM 58.7451 20.1010 55° Northeast  Level Estimated
08:18AM 58.8173 20.3035 55° Northeast  Level Estimated
08:19AM 58.8891 20.5068 56° Northeast  Level Estimated
08:20AM 58.9607 20.7110 56° Northeast  Level Estimated
08:21AM 59.0297 20.9097 56° Northeast  Level Estimated
08:22AM 59.0984 21.1091 56° Northeast  Level Estimated
08:23AM 59.1668 21.3094 56° Northeast  Level Estimated
08:24AM 59.2349 21.5105 56° Northeast  Level Estimated
08:25AM 59.3027 21.7124 57° Northeast  Level Estimated
08:26AM 59.3702 21.9151 57° Northeast  Level Estimated
08:27AM 59.4373 22.1186 57° Northeast  Level Estimated
08:28AM 59.5042 22.3229 57° Northeast  Level Estimated
08:29AM 59.5707 22.5280 57° Northeast  Level Estimated
08:30AM 59.6369 22.7340 57° Northeast  Level Estimated
08:31AM 59.7028 22.9407 58° Northeast  Level Estimated
08:32AM 59.7683 23.1483 58° Northeast  Level Estimated
08:33AM 59.8335 23.3566 58° Northeast  Level Estimated
08:34AM 59.8984 23.5658 58° Northeast  Level Estimated
08:35AM 59.9630 23.7758 58° Northeast  Level Estimated
08:36AM 60.0272 23.9866 59° Northeast  Level Estimated
08:37AM 60.0911 24.1983 59° Northeast  Level Estimated
08:38AM 60.1547 24.4107 59° Northeast  Level Estimated
08:39AM 60.2179 24.6240 59° Northeast  Level Estimated
08:40AM 60.2807 24.8381 59° Northeast  Level Estimated
08:41AM 60.3172 24.9633 59° Northeast  Level Estimated
08:42AM 60.3172 24.9633 37° Northeast  Level Estimated
08:43AM 60.3172 24.9633 37° Northeast  Level Estimated
08:44AM 60.3172 24.9633 37° Northeast  Level Estimated
08:45AM 60.3172 24.9633 37° Northeast  Level Estimated
08:46AM 60.3172 24.9633 37° Northeast  Level Estimated
08:47AM 60.3172 24.9633 37° Northeast  Level Estimated
08:48AM 60.3172 24.9633 37° Northeast  Level Estimated
08:49AM 60.3172 24.9633 37° Northeast  Level Estimated
08:50AM 60.3172 24.9633 37° Northeast  Level Estimated
08:51AM 60.3172 24.9633 37° Northeast  Level Estimated
08:52AM 60.3172 24.9633 37° Northeast  Level Estimated
08:53AM 60.3172 24.9633 37° Northeast  Level Estimated
08:54AM 60.3172 24.9633 37° Northeast  Level Estimated
08:55AM 60.3172 24.9633 37° Northeast  Level Estimated
08:56AM 60.3172 24.9633 37° Northeast  Level Estimated
08:57AM 60.3172 24.9633 37° Northeast  Level Estimated
08:58AM 60.3172 24.9633 37° Northeast  Level Estimated
08:59AM 60.3172 24.9633 37° Northeast  Level Estimated
09:00AM 60.3172 24.9633 37° Northeast  Level Estimated
09:01AM 60.3172 24.9633 37° Northeast  Level Estimated
09:02AM 60.3172 24.9633 37° Northeast  Level Estimated
09:03AM 60.3172 24.9633 37° Northeast  Level Estimated
09:04AM 60.3172 24.9633 37° Northeast  Level Estimated
09:05AM 60.3172 24.9633 37° Northeast  Level Estimated
09:06AM 60.3172 24.9633 37° Northeast  Level Estimated
09:07AM 60.3172 24.9633 37° Northeast  Level Estimated